EKSP/SKS METAR and TAF weather

Enter ICAO airport designator
Station Type Date Time Source
EKSP METAR 2019/10/18 05:50 UTC NOAA

EKSP 180550Z 15003KT 8000 BKN007 11/10 Q1005 TEMPO 2000 BR BKN003


Station Type Date Time Source
EKSP Decoded METAR 2019/10/18 05:50 UTC NOAA

Skrydstrup, Denmark (EKSP) 55-14N 009-16E 47M
Oct 18, 2019 - 01:50 AM EDT / 2019.10.18 0550 UTC
Wind: from the SSE (150 degrees) at 3 MPH (3 KT):0
Visibility: 4 mile(s):0
Sky conditions: mostly cloudy
Temperature: 51 F (11 C)
Dew Point: 50 F (10 C)
Relative Humidity: 93%
Pressure (altimeter): 29.68 in. Hg (1005 hPa)
ob: EKSP 180550Z 15003KT 8000 BKN007 11/10 Q1005 TEMPO 2000 BR BKN003
cycle: 6

Station Type Date Time Source
EKSP TAF 2019/10/18 06:30 UTC NOAA

TAF EKSP 180502Z 1806/1906 17010KT 9999 BKN020
TEMPO 1806/1808 2000 -SHRA BR BKN003 SCT020TCU
TEMPO 1808/1906 4000 SHRA BKN008 BKN020CB
BECMG 1816/1819 20012G22KT

Example: see airport list